sensor_id;sensor_type;location;lat;lon;timestamp;P1;durP1;ratioP1;P2;durP2;ratioP2
18473;SDS011;30265;52.408;13.500;2023-05-15T00:00:27;15.75;;;9.77;;
18473;SDS011;30265;52.408;13.500;2023-05-15T00:10:50;17.17;;;10.95;;
18473;SDS011;30265;52.408;13.500;2023-05-15T00:21:20;18.60;;;11.38;;
18473;SDS011;30265;52.408;13.500;2023-05-15T00:31:43;16.83;;;10.00;;
18473;SDS011;30265;52.408;13.500;2023-05-15T00:42:05;15.65;;;10.65;;
18473;SDS011;30265;52.408;13.500;2023-05-15T00:52:29;16.48;;;9.50;;
18473;SDS011;30265;52.408;13.500;2023-05-15T01:02:52;22.60;;;12.18;;
18473;SDS011;30265;52.408;13.500;2023-05-15T01:13:16;20.67;;;11.13;;
18473;SDS011;30265;52.408;13.500;2023-05-15T01:23:42;22.30;;;11.00;;
18473;SDS011;30265;52.408;13.500;2023-05-15T01:34:12;17.98;;;10.75;;
18473;SDS011;30265;52.408;13.500;2023-05-15T01:44:40;19.55;;;11.60;;
18473;SDS011;30265;52.408;13.500;2023-05-15T01:55:07;17.92;;;12.02;;
18473;SDS011;30265;52.408;13.500;2023-05-15T02:05:30;17.70;;;10.48;;
18473;SDS011;30265;52.408;13.500;2023-05-15T02:15:55;16.10;;;10.52;;
18473;SDS011;30265;52.408;13.500;2023-05-15T02:26:22;18.30;;;11.40;;
18473;SDS011;30265;52.408;13.500;2023-05-15T02:36:52;27.70;;;12.73;;
18473;SDS011;30265;52.408;13.500;2023-05-15T02:47:17;18.00;;;11.60;;
18473;SDS011;30265;52.408;13.500;2023-05-15T02:57:41;18.73;;;12.63;;
18473;SDS011;30265;52.408;13.500;2023-05-15T03:08:03;16.08;;;11.02;;
18473;SDS011;30265;52.408;13.500;2023-05-15T03:18:27;21.85;;;12.65;;
18473;SDS011;30265;52.408;13.500;2023-05-15T03:28:50;20.67;;;12.93;;
18473;SDS011;30265;52.408;13.500;2023-05-15T03:39:13;22.27;;;12.88;;
18473;SDS011;30265;52.408;13.500;2023-05-15T03:49:34;21.23;;;11.77;;
18473;SDS011;30265;52.408;13.500;2023-05-15T03:59:58;21.98;;;12.90;;
18473;SDS011;30265;52.408;13.500;2023-05-15T04:10:32;19.35;;;12.68;;
18473;SDS011;30265;52.408;13.500;2023-05-15T04:20:55;22.00;;;13.13;;
18473;SDS011;30265;52.408;13.500;2023-05-15T04:41:44;19.92;;;11.95;;
18473;SDS011;30265;52.408;13.500;2023-05-15T04:52:06;19.35;;;12.57;;
18473;SDS011;30265;52.408;13.500;2023-05-15T05:02:29;21.77;;;12.68;;
18473;SDS011;30265;52.408;13.500;2023-05-15T05:13:16;19.88;;;14.10;;
18473;SDS011;30265;52.408;13.500;2023-05-15T05:23:39;23.08;;;13.18;;
18473;SDS011;30265;52.408;13.500;2023-05-15T05:34:01;15.68;;;11.32;;
18473;SDS011;30265;52.408;13.500;2023-05-15T05:44:26;16.55;;;10.65;;
18473;SDS011;30265;52.408;13.500;2023-05-15T05:54:49;20.15;;;10.63;;
18473;SDS011;30265;52.408;13.500;2023-05-15T06:05:11;14.75;;;10.85;;
18473;SDS011;30265;52.408;13.500;2023-05-15T06:15:33;15.80;;;10.85;;
18473;SDS011;30265;52.408;13.500;2023-05-15T06:25:56;19.35;;;11.02;;
18473;SDS011;30265;52.408;13.500;2023-05-15T06:36:21;14.07;;;10.10;;
18473;SDS011;30265;52.408;13.500;2023-05-15T06:46:46;15.02;;;7.07;;
18473;SDS011;30265;52.408;13.500;2023-05-15T06:57:08;12.77;;;8.70;;
18473;SDS011;30265;52.408;13.500;2023-05-15T07:07:30;12.30;;;7.38;;
18473;SDS011;30265;52.408;13.500;2023-05-15T07:17:52;9.57;;;6.85;;
18473;SDS011;30265;52.408;13.500;2023-05-15T07:28:15;11.93;;;7.13;;
18473;SDS011;30265;52.408;13.500;2023-05-15T07:38:36;11.95;;;5.93;;
18473;SDS011;30265;52.408;13.500;2023-05-15T07:48:59;8.60;;;5.82;;
18473;SDS011;30265;52.408;13.500;2023-05-15T07:59:22;10.07;;;5.93;;
18473;SDS011;30265;52.408;13.500;2023-05-15T08:09:45;10.73;;;6.40;;
18473;SDS011;30265;52.408;13.500;2023-05-15T08:20:07;14.82;;;6.75;;
18473;SDS011;30265;52.408;13.500;2023-05-15T08:30:32;13.85;;;6.78;;
18473;SDS011;30265;52.408;13.500;2023-05-15T08:40:54;15.35;;;6.90;;
18473;SDS011;30265;52.408;13.500;2023-05-15T08:51:22;15.35;;;7.00;;
18473;SDS011;30265;52.408;13.500;2023-05-15T09:01:45;10.30;;;6.90;;
18473;SDS011;30265;52.408;13.500;2023-05-15T09:12:09;17.35;;;6.95;;
18473;SDS011;30265;52.408;13.500;2023-05-15T09:22:34;11.93;;;6.15;;
18473;SDS011;30265;52.408;13.500;2023-05-15T09:32:59;9.40;;;6.28;;
18473;SDS011;30265;52.408;13.500;2023-05-15T09:43:22;9.40;;;6.18;;
18473;SDS011;30265;52.408;13.500;2023-05-15T09:53:48;13.10;;;6.55;;
18473;SDS011;30265;52.408;13.500;2023-05-15T10:04:11;8.77;;;5.45;;
18473;SDS011;30265;52.408;13.500;2023-05-15T10:14:36;18.27;;;5.60;;
18473;SDS011;30265;52.408;13.500;2023-05-15T10:24:59;10.77;;;5.40;;
18473;SDS011;30265;52.408;13.500;2023-05-15T10:35:24;10.43;;;5.53;;
18473;SDS011;30265;52.408;13.500;2023-05-15T10:45:47;8.75;;;5.10;;
18473;SDS011;30265;52.408;13.500;2023-05-15T10:56:14;10.85;;;5.75;;
18473;SDS011;30265;52.408;13.500;2023-05-15T11:06:37;10.93;;;5.72;;
18473;SDS011;30265;52.408;13.500;2023-05-15T11:17:02;6.80;;;4.20;;
18473;SDS011;30265;52.408;13.500;2023-05-15T11:27:28;7.97;;;4.13;;
18473;SDS011;30265;52.408;13.500;2023-05-15T11:38:15;8.65;;;4.10;;
18473;SDS011;30265;52.408;13.500;2023-05-15T11:48:39;6.72;;;3.40;;
18473;SDS011;30265;52.408;13.500;2023-05-15T11:59:04;6.00;;;3.20;;
18473;SDS011;30265;52.408;13.500;2023-05-15T12:09:30;5.35;;;3.47;;
18473;SDS011;30265;52.408;13.500;2023-05-15T12:19:53;5.43;;;3.20;;
18473;SDS011;30265;52.408;13.500;2023-05-15T12:30:20;4.70;;;2.30;;
18473;SDS011;30265;52.408;13.500;2023-05-15T12:41:10;4.00;;;2.17;;
18473;SDS011;30265;52.408;13.500;2023-05-15T12:51:40;5.15;;;2.40;;
18473;SDS011;30265;52.408;13.500;2023-05-15T13:02:04;5.07;;;2.33;;
18473;SDS011;30265;52.408;13.500;2023-05-15T13:12:33;3.60;;;2.30;;
18473;SDS011;30265;52.408;13.500;2023-05-15T13:22:57;4.22;;;2.47;;
18473;SDS011;30265;52.408;13.500;2023-05-15T13:33:18;4.28;;;2.10;;
18473;SDS011;30265;52.408;13.500;2023-05-15T13:43:41;3.70;;;2.30;;
18473;SDS011;30265;52.408;13.500;2023-05-15T13:54:03;6.55;;;2.58;;
18473;SDS011;30265;52.408;13.500;2023-05-15T14:04:26;3.63;;;1.75;;
18473;SDS011;30265;52.408;13.500;2023-05-15T14:14:48;3.47;;;2.33;;
18473;SDS011;30265;52.408;13.500;2023-05-15T14:25:11;4.05;;;2.17;;
18473;SDS011;30265;52.408;13.500;2023-05-15T14:35:33;3.60;;;2.53;;
18473;SDS011;30265;52.408;13.500;2023-05-15T14:45:58;4.63;;;3.03;;
18473;SDS011;30265;52.408;13.500;2023-05-15T14:56:20;3.50;;;2.57;;
18473;SDS011;30265;52.408;13.500;2023-05-15T15:06:43;3.53;;;2.83;;
18473;SDS011;30265;52.408;13.500;2023-05-15T15:27:31;3.40;;;1.92;;
18473;SDS011;30265;52.408;13.500;2023-05-15T15:37:54;3.10;;;1.90;;
18473;SDS011;30265;52.408;13.500;2023-05-15T15:48:17;4.30;;;2.28;;
18473;SDS011;30265;52.408;13.500;2023-05-15T15:58:39;4.10;;;2.73;;
18473;SDS011;30265;52.408;13.500;2023-05-15T16:09:03;4.85;;;2.50;;
18473;SDS011;30265;52.408;13.500;2023-05-15T16:19:25;4.28;;;2.28;;
18473;SDS011;30265;52.408;13.500;2023-05-15T16:29:48;4.93;;;2.67;;
18473;SDS011;30265;52.408;13.500;2023-05-15T16:40:10;3.30;;;2.50;;
18473;SDS011;30265;52.408;13.500;2023-05-15T16:50:34;3.92;;;2.78;;
18473;SDS011;30265;52.408;13.500;2023-05-15T17:00:56;3.33;;;2.63;;
18473;SDS011;30265;52.408;13.500;2023-05-15T17:11:20;5.25;;;2.97;;
18473;SDS011;30265;52.408;13.500;2023-05-15T17:21:42;3.30;;;2.53;;
18473;SDS011;30265;52.408;13.500;2023-05-15T17:32:08;11.40;;;3.87;;
18473;SDS011;30265;52.408;13.500;2023-05-15T17:42:30;5.00;;;2.90;;
18473;SDS011;30265;52.408;13.500;2023-05-15T17:52:53;4.65;;;2.80;;
18473;SDS011;30265;52.408;13.500;2023-05-15T18:03:16;6.07;;;3.83;;
18473;SDS011;30265;52.408;13.500;2023-05-15T18:13:39;8.02;;;4.50;;
18473;SDS011;30265;52.408;13.500;2023-05-15T18:24:01;7.85;;;4.70;;
18473;SDS011;30265;52.408;13.500;2023-05-15T18:34:23;7.78;;;4.28;;
18473;SDS011;30265;52.408;13.500;2023-05-15T18:44:45;15.35;;;7.03;;
18473;SDS011;30265;52.408;13.500;2023-05-15T18:55:09;5.18;;;4.15;;
18473;SDS011;30265;52.408;13.500;2023-05-15T19:05:31;11.30;;;4.10;;
18473;SDS011;30265;52.408;13.500;2023-05-15T19:15:54;6.10;;;4.20;;
18473;SDS011;30265;52.408;13.500;2023-05-15T19:26:17;4.60;;;3.70;;
18473;SDS011;30265;52.408;13.500;2023-05-15T19:36:41;4.95;;;4.07;;
18473;SDS011;30265;52.408;13.500;2023-05-15T19:47:04;7.43;;;4.85;;
18473;SDS011;30265;52.408;13.500;2023-05-15T19:57:29;5.72;;;3.83;;
18473;SDS011;30265;52.408;13.500;2023-05-15T20:07:50;5.75;;;4.38;;
18473;SDS011;30265;52.408;13.500;2023-05-15T20:18:14;7.10;;;4.85;;
18473;SDS011;30265;52.408;13.500;2023-05-15T20:28:36;12.90;;;4.90;;
18473;SDS011;30265;52.408;13.500;2023-05-15T20:38:59;8.25;;;4.95;;
18473;SDS011;30265;52.408;13.500;2023-05-15T20:49:26;9.70;;;5.35;;
18473;SDS011;30265;52.408;13.500;2023-05-15T20:59:49;6.88;;;3.85;;
18473;SDS011;30265;52.408;13.500;2023-05-15T21:10:10;6.80;;;4.78;;
18473;SDS011;30265;52.408;13.500;2023-05-15T21:20:39;10.88;;;5.50;;
18473;SDS011;30265;52.408;13.500;2023-05-15T21:31:04;10.55;;;5.75;;
18473;SDS011;30265;52.408;13.500;2023-05-15T21:41:27;7.40;;;5.57;;
18473;SDS011;30265;52.408;13.500;2023-05-15T21:51:49;7.45;;;5.50;;
18473;SDS011;30265;52.408;13.500;2023-05-15T22:02:12;7.93;;;5.65;;
18473;SDS011;30265;52.408;13.500;2023-05-15T22:12:33;7.93;;;5.97;;
18473;SDS011;30265;52.408;13.500;2023-05-15T22:22:56;12.30;;;6.03;;
18473;SDS011;30265;52.408;13.500;2023-05-15T22:33:20;8.43;;;5.88;;
18473;SDS011;30265;52.408;13.500;2023-05-15T22:43:44;10.60;;;5.40;;
18473;SDS011;30265;52.408;13.500;2023-05-15T22:54:06;6.90;;;4.43;;
18473;SDS011;30265;52.408;13.500;2023-05-15T23:04:28;8.68;;;5.13;;
18473;SDS011;30265;52.408;13.500;2023-05-15T23:14:58;8.57;;;6.15;;
18473;SDS011;30265;52.408;13.500;2023-05-15T23:25:21;8.18;;;5.45;;
18473;SDS011;30265;52.408;13.500;2023-05-15T23:35:43;9.05;;;6.63;;
18473;SDS011;30265;52.408;13.500;2023-05-15T23:46:06;9.52;;;6.60;;
18473;SDS011;30265;52.408;13.500;2023-05-15T23:56:27;9.68;;;6.30;;
